createdAt,value
2022-11-18T04:50:54.748Z,37.23
2022-11-18T04:53:24.564Z,36.63
2022-11-18T04:55:54.917Z,39.63
2022-11-18T04:58:23.829Z,38.27
2022-11-18T05:00:52.683Z,41.70
2022-11-18T05:03:21.563Z,41.07
2022-11-18T05:05:57.084Z,40.80
2022-11-18T05:08:25.886Z,41.00
2022-11-18T05:11:15.712Z,38.27
2022-11-18T05:13:43.367Z,38.07
2022-11-18T05:16:13.478Z,41.50
2022-11-18T05:18:42.235Z,39.93
2022-11-18T05:21:12.627Z,43.63
2022-11-18T05:23:42.902Z,42.00
2022-11-18T05:26:12.738Z,45.47
2022-11-18T05:28:41.317Z,43.23
2022-11-18T05:31:10.643Z,40.33
2022-11-18T05:33:40.070Z,43.23
2022-11-18T05:36:15.908Z,42.47
2022-11-18T05:38:44.731Z,47.17
2022-11-18T05:41:35.129Z,44.17
2022-11-18T05:44:04.050Z,44.83
2022-11-18T05:46:34.235Z,41.13
2022-11-18T05:49:05.184Z,43.77
2022-11-18T05:51:35.220Z,43.10
2022-11-18T05:54:06.615Z,46.87
2022-11-18T05:56:40.809Z,42.03
2022-11-18T05:59:09.650Z,46.93
2022-11-18T06:01:43.405Z,43.30
2022-11-18T06:04:18.542Z,41.60
2022-11-18T06:06:51.062Z,44.23
2022-11-18T06:09:25.543Z,42.43
2022-11-18T06:11:57.840Z,37.57
2022-11-18T06:14:31.317Z,37.80
2022-11-18T06:17:04.669Z,36.63
2022-11-18T06:19:34.505Z,38.23
2022-11-18T06:22:06.048Z,34.23
2022-11-18T06:24:35.534Z,37.40
2022-11-18T06:27:05.043Z,34.57
2022-11-18T06:29:33.785Z,36.87
2022-11-18T06:32:02.304Z,30.60
2022-11-18T06:34:31.076Z,32.40
2022-11-18T06:36:59.868Z,32.27
2022-11-18T06:39:31.929Z,33.70
2022-11-18T06:42:00.562Z,29.37
2022-11-18T06:44:28.024Z,29.10
2022-11-18T06:46:59.908Z,29.10
2022-11-18T06:49:29.251Z,31.13
2022-11-18T06:51:57.901Z,28.90
2022-11-18T06:54:26.579Z,29.23
2022-11-18T06:56:56.609Z,28.13
2022-11-18T06:59:25.183Z,28.13
2022-11-18T07:01:54.720Z,27.83
2022-11-18T07:04:23.513Z,30.63
2022-11-18T07:06:52.690Z,29.17
2022-11-18T07:09:21.611Z,28.47
2022-11-18T07:11:50.243Z,27.97
2022-11-18T07:14:20.404Z,31.07
2022-11-18T07:16:48.920Z,29.47
2022-11-18T07:19:22.664Z,31.23
2022-11-18T07:21:51.321Z,31.83
2022-11-18T07:24:25.216Z,29.83
2022-11-18T07:26:55.207Z,31.87
2022-11-18T07:29:29.761Z,26.30
2022-11-18T07:31:58.577Z,29.33
2022-11-18T07:34:27.249Z,35.60
2022-11-18T07:36:55.875Z,28.53
2022-11-18T07:39:24.583Z,29.70
2022-11-18T07:41:53.065Z,32.37
2022-11-18T07:44:21.930Z,29.67
2022-11-18T07:46:51.939Z,34.03
2022-11-18T07:49:20.625Z,31.90
2022-11-18T07:51:49.737Z,29.73
2022-11-18T07:54:20.125Z,29.80
2022-11-18T07:56:48.910Z,29.17
2022-11-18T07:59:18.056Z,28.13
2022-11-18T08:01:48.329Z,30.83
2022-11-18T08:04:19.738Z,28.83
2022-11-18T08:06:49.165Z,28.27
2022-11-18T08:09:18.310Z,29.30
2022-11-18T08:11:47.456Z,28.60
2022-11-18T08:14:18.413Z,28.63
2022-11-18T08:16:47.359Z,27.43
2022-11-18T08:19:16.307Z,26.90
2022-11-18T08:21:46.888Z,29.77
2022-11-18T08:24:15.832Z,28.33
2022-11-18T08:26:44.760Z,24.57
2022-11-18T08:29:13.729Z,29.50
2022-11-18T08:31:42.701Z,28.07
2022-11-18T08:34:11.530Z,29.27
2022-11-18T08:36:40.833Z,28.37
2022-11-18T08:39:13.777Z,27.67
2022-11-18T08:41:45.636Z,25.73
2022-11-18T08:44:16.244Z,24.13
2022-11-18T08:46:46.458Z,24.93
2022-11-18T08:49:15.825Z,25.93
2022-11-18T08:51:44.952Z,27.47
2022-11-18T08:54:15.250Z,26.47
2022-11-18T08:56:44.123Z,25.17
2022-11-18T08:59:13.088Z,24.80
2022-11-18T09:01:43.872Z,23.33
2022-11-18T09:04:13.592Z,22.83
2022-11-18T09:06:44.512Z,27.07
2022-11-18T09:09:14.800Z,24.43
2022-11-18T09:11:43.729Z,24.80
2022-11-18T09:15:11.943Z,26.23
2022-11-18T09:17:02.992Z,24.97
2022-11-18T09:19:48.360Z,22.10
2022-11-18T09:22:17.603Z,23.50
2022-11-18T09:24:48.032Z,23.70
2022-11-18T09:27:18.316Z,22.90
2022-11-18T09:29:47.483Z,24.03
2022-11-18T09:32:16.489Z,24.87
2022-11-18T09:34:45.313Z,21.43
2022-11-18T09:37:14.169Z,24.17
2022-11-18T09:39:43.032Z,25.87
2022-11-18T09:42:29.832Z,25.23
2022-11-18T09:45:17.089Z,22.17
2022-11-18T09:47:48.360Z,24.30
2022-11-18T09:50:49.093Z,23.00
2022-11-18T09:53:19.452Z,22.10
2022-11-18T09:55:49.957Z,21.57
2022-11-18T09:58:34.240Z,24.40
2022-11-18T10:01:05.200Z,17.70
2022-11-18T10:03:35.123Z,20.57
2022-11-18T10:06:23.600Z,18.97
2022-11-18T10:09:14.552Z,19.50
2022-11-18T10:12:10.888Z,18.57
2022-11-18T10:14:59.392Z,18.47
2022-11-18T10:17:40.042Z,20.03
2022-11-18T10:20:24.760Z,16.37
2022-11-18T10:22:57.960Z,17.40
2022-11-18T10:25:27.272Z,14.03
2022-11-18T10:27:57.872Z,14.33
2022-11-18T10:30:28.488Z,16.47
2022-11-18T10:33:02.154Z,12.37
2022-11-18T10:35:33.603Z,13.10
2022-11-18T10:38:08.984Z,13.57
2022-11-18T10:40:44.161Z,11.33
2022-11-18T10:43:36.854Z,11.30
2022-11-18T10:46:19.432Z,13.43
2022-11-18T10:48:48.321Z,13.77
2022-11-18T10:51:24.275Z,11.87
2022-11-18T10:53:53.274Z,11.67
2022-11-18T10:56:21.955Z,11.10
2022-11-18T10:58:52.961Z,12.30
2022-11-18T11:01:24.841Z,12.57
2022-11-18T11:04:01.374Z,10.63
2022-11-18T11:06:33.608Z,14.33
2022-11-18T11:09:10.690Z,12.70
2022-11-18T11:11:43.568Z,9.10
2022-11-18T11:14:23.914Z,14.17
2022-11-18T11:17:13.850Z,10.23
2022-11-18T11:19:50.632Z,11.70
2022-11-18T11:22:19.682Z,11.90
2022-11-18T11:24:49.079Z,12.50
2022-11-18T11:30:25.112Z,11.33
2022-11-18T11:33:20.734Z,11.57
2022-11-18T11:36:09.721Z,12.73
2022-11-18T11:38:53.559Z,13.13
2022-11-18T11:41:24.838Z,12.23
2022-11-18T11:44:13.880Z,12.03
2022-11-18T11:47:09.482Z,10.27
2022-11-18T11:49:50.924Z,15.93
2022-11-18T11:52:31.119Z,12.23
2022-11-18T11:55:12.207Z,13.93
2022-11-18T11:57:59.130Z,13.07
2022-11-18T12:00:29.070Z,12.17
2022-11-18T12:03:15.935Z,13.10
2022-11-18T12:06:19.928Z,11.50
2022-11-18T12:09:00.831Z,13.37
2022-11-18T12:11:35.673Z,14.67
2022-11-18T12:14:09.591Z,11.43
2022-11-18T12:16:44.671Z,12.40
2022-11-18T12:19:16.972Z,11.50
2022-11-18T12:22:00.807Z,13.40
2022-11-18T12:24:32.681Z,13.33
2022-11-18T12:27:03.168Z,14.03
2022-11-18T12:29:38.511Z,14.40
2022-11-18T12:32:32.079Z,11.47
2022-11-18T12:35:04.161Z,13.07
2022-11-18T12:37:46.690Z,13.07
2022-11-18T12:40:48.792Z,11.03
2022-11-18T12:43:51.561Z,10.73
2022-11-18T12:46:52.359Z,12.70
2022-11-18T12:50:12.996Z,10.27
2022-11-18T12:52:54.271Z,10.60
2022-11-18T12:55:34.792Z,11.17
2022-11-18T12:58:03.840Z,10.00
2022-11-18T13:00:52.939Z,10.43
2022-11-18T13:03:29.048Z,9.63
2022-11-18T13:06:14.454Z,9.07
2022-11-18T13:08:44.719Z,9.87
2022-11-18T13:11:36.047Z,9.80
2022-11-18T13:14:23.527Z,10.57
2022-11-18T13:17:06.288Z,9.07
2022-11-18T13:19:35.032Z,8.50
2022-11-18T13:22:21.531Z,8.80
2022-11-18T13:24:53.081Z,8.50
2022-11-18T13:27:32.959Z,10.37
2022-11-18T13:30:05.792Z,9.50
2022-11-18T13:32:35.040Z,8.40
2022-11-18T13:35:16.795Z,10.80
2022-11-18T13:37:54.315Z,9.83
2022-11-18T13:40:28.033Z,8.83
2022-11-18T13:42:58.011Z,8.37
2022-11-18T13:45:28.854Z,10.43
2022-11-18T13:48:03.273Z,9.20
2022-11-18T13:50:41.954Z,8.93
2022-11-18T13:53:25.114Z,8.90
2022-11-18T13:56:01.892Z,6.53
2022-11-18T13:58:55.786Z,9.47
2022-11-18T14:01:26.856Z,8.93
2022-11-18T14:03:58.801Z,9.27
2022-11-18T14:06:46.013Z,9.57
2022-11-18T14:09:25.635Z,9.00
2022-11-18T14:12:05.716Z,10.33
2022-11-18T14:14:36.090Z,8.87
2022-11-18T14:17:18.993Z,9.70
2022-11-18T14:19:49.010Z,8.30
2022-11-18T14:22:21.017Z,6.90
2022-11-18T14:24:57.130Z,7.33
2022-11-18T14:27:42.444Z,7.83
2022-11-18T14:30:35.981Z,7.60
2022-11-18T14:33:20.720Z,6.03
2022-11-18T14:35:58.352Z,8.63
2022-11-18T14:38:48.190Z,8.63
2022-11-18T14:41:50.052Z,8.23
2022-11-18T14:44:24.634Z,8.17
2022-11-18T14:47:06.634Z,8.33
2022-11-18T14:49:35.610Z,7.17
2022-11-18T14:52:04.813Z,8.70
2022-11-18T14:54:36.448Z,7.13
2022-11-18T14:57:07.073Z,8.43
2022-11-18T14:59:37.840Z,8.80
2022-11-18T15:02:06.672Z,7.47
2022-11-18T15:04:35.369Z,8.97
2022-11-18T15:07:04.350Z,7.87
2022-11-18T15:09:34.323Z,5.83
2022-11-18T15:12:06.323Z,5.37
2022-11-18T15:14:36.720Z,4.27
2022-11-18T15:17:06.360Z,6.40
2022-11-18T15:19:37.317Z,5.50
2022-11-18T15:22:07.603Z,4.77
2022-11-18T15:24:39.232Z,4.87
2022-11-18T15:27:09.032Z,6.47
2022-11-18T15:29:39.241Z,7.73
2022-11-18T15:32:08.127Z,6.83
2022-11-18T15:34:37.161Z,7.70
2022-11-18T15:37:06.160Z,5.53
2022-11-18T15:39:34.993Z,6.93
2022-11-18T15:42:04.120Z,6.60
2022-11-18T15:44:33.279Z,5.53
2022-11-18T15:47:03.569Z,6.50
2022-11-18T15:49:32.878Z,5.73
2022-11-18T15:52:01.954Z,5.13
2022-11-18T15:54:30.736Z,5.57
2022-11-18T15:56:59.407Z,10.43
2022-11-18T15:59:28.103Z,6.07
2022-11-18T16:01:58.064Z,6.17
2022-11-18T16:04:28.676Z,5.67
2022-11-18T16:06:58.039Z,9.40
2022-11-18T16:09:46.996Z,7.53
2022-11-18T16:12:33.131Z,7.83
2022-11-18T16:15:19.272Z,6.83
2022-11-18T16:17:53.790Z,5.97
2022-11-18T16:20:23.970Z,8.63
2022-11-18T16:22:54.503Z,8.50
2022-11-18T16:25:23.567Z,10.07
2022-11-18T16:27:55.511Z,10.00
2022-11-18T16:30:43.461Z,9.90
2022-11-18T16:33:12.259Z,12.13
2022-11-18T16:35:49.761Z,16.53
2022-11-18T16:38:18.583Z,16.03
2022-11-18T16:40:57.790Z,10.73
2022-11-18T16:43:27.032Z,13.77
2022-11-18T16:45:58.857Z,12.23
2022-11-18T16:48:27.482Z,15.63
2022-11-18T16:51:19.461Z,12.57
2022-11-18T16:53:55.596Z,13.03
2022-11-18T16:56:25.954Z,15.07
2022-11-18T16:58:59.695Z,12.07
2022-11-18T17:01:29.992Z,11.10
2022-11-18T17:04:00.827Z,10.97
2022-11-18T17:06:33.354Z,8.40
2022-11-18T17:09:02.441Z,9.43
2022-11-18T17:11:34.953Z,7.77
2022-11-18T17:14:03.532Z,11.87
2022-11-18T17:16:34.708Z,9.97
2022-11-18T17:19:10.171Z,8.80
2022-11-18T17:21:42.052Z,9.63
2022-11-18T17:24:12.308Z,8.20
2022-11-18T17:26:41.736Z,8.17
2022-11-18T17:29:12.940Z,9.33
2022-11-18T17:31:43.142Z,7.97
2022-11-18T17:34:13.256Z,7.80
2022-11-18T17:36:49.259Z,8.07
2022-11-18T17:39:20.919Z,6.20
2022-11-18T17:42:07.252Z,7.73
2022-11-18T17:44:36.593Z,8.60
2022-11-18T17:47:09.042Z,8.43
2022-11-18T17:49:43.575Z,7.40
2022-11-18T17:52:14.667Z,6.67
2022-11-18T17:54:43.272Z,8.13
2022-11-18T17:57:12.464Z,8.43
2022-11-18T17:59:41.360Z,5.90
2022-11-18T18:02:13.206Z,7.07
2022-11-18T18:04:44.202Z,8.30
2022-11-18T18:07:14.347Z,6.90
2022-11-18T18:09:43.013Z,10.43
2022-11-18T18:12:29.762Z,8.17
2022-11-18T18:15:04.174Z,8.93
2022-11-18T18:17:38.632Z,9.13
2022-11-18T18:20:08.051Z,9.10
2022-11-18T18:22:38.200Z,7.73
2022-11-18T18:25:07.893Z,8.70
2022-11-18T18:27:36.701Z,7.77
2022-11-18T18:30:06.048Z,11.17
2022-11-18T18:32:36.477Z,9.80
2022-11-18T18:35:06.882Z,9.80
2022-11-18T18:37:42.599Z,8.90
2022-11-18T18:40:11.870Z,8.97
2022-11-18T18:42:40.326Z,8.53
2022-11-18T18:45:28.410Z,11.47
2022-11-18T18:48:04.042Z,11.17
2022-11-18T18:50:33.829Z,10.60
2022-11-18T18:53:06.797Z,9.77
2022-11-18T18:55:38.147Z,9.87
2022-11-18T18:58:09.339Z,11.00
2022-11-18T19:00:38.013Z,10.20
2022-11-18T19:03:06.662Z,14.23
2022-11-18T19:06:03.694Z,10.00
2022-11-18T19:08:25.220Z,12.57
2022-11-18T19:10:54.017Z,12.20
2022-11-18T19:13:21.547Z,9.77
2022-11-18T19:15:50.322Z,12.57
2022-11-18T19:18:19.113Z,10.23
2022-11-18T19:20:47.868Z,10.37
2022-11-18T19:23:17.641Z,10.53
2022-11-18T19:25:47.545Z,11.00
2022-11-18T19:28:16.268Z,10.30
2022-11-18T19:30:45.017Z,13.37
2022-11-18T19:33:13.483Z,11.93
2022-11-18T19:35:41.934Z,12.90
2022-11-18T19:38:10.369Z,10.03
2022-11-18T19:40:38.865Z,15.00
2022-11-18T19:43:09.101Z,16.70
2022-11-18T19:45:37.737Z,12.80
2022-11-18T19:48:06.799Z,15.67
2022-11-18T19:50:35.406Z,12.33
2022-11-18T19:53:24.065Z,12.17
2022-11-18T19:55:56.322Z,12.20
2022-11-18T19:58:27.154Z,11.67
2022-11-18T20:00:57.390Z,12.40
2022-11-18T20:03:29.163Z,10.27
2022-11-18T20:06:04.037Z,11.17
2022-11-18T20:08:35.449Z,9.63
2022-11-18T20:11:09.211Z,11.40
2022-11-18T20:13:40.761Z,11.37
2022-11-18T20:16:12.143Z,11.60
2022-11-18T20:18:48.960Z,10.53
2022-11-18T20:21:21.099Z,9.83
2022-11-18T20:23:53.562Z,11.27
2022-11-18T20:26:23.636Z,10.70
2022-11-18T20:28:57.416Z,10.57
2022-11-18T20:31:28.048Z,10.43
2022-11-18T20:33:58.527Z,10.73
2022-11-18T20:36:29.022Z,12.40
2022-11-18T20:38:59.194Z,11.93
2022-11-18T20:41:30.509Z,11.90
2022-11-18T20:44:01.170Z,16.03
2022-11-18T20:46:30.442Z,17.87
2022-11-18T20:48:59.968Z,15.13
2022-11-18T20:51:29.938Z,15.23
2022-11-18T20:54:00.228Z,13.00
2022-11-18T20:56:30.546Z,16.67
2022-11-18T20:59:00.503Z,15.60
2022-11-18T21:01:30.636Z,14.67
2022-11-18T21:04:01.081Z,17.30
2022-11-18T21:06:33.373Z,17.47
2022-11-18T21:09:03.858Z,25.73
2022-11-18T21:11:37.086Z,24.37
2022-11-18T21:14:24.755Z,22.70
2022-11-18T21:16:55.470Z,18.23
2022-11-18T21:19:26.349Z,19.13
2022-11-18T21:22:02.584Z,16.87
2022-11-18T21:24:32.887Z,17.67
2022-11-18T21:27:02.807Z,16.77
2022-11-18T21:29:34.413Z,16.03
2022-11-18T21:32:03.291Z,18.20
2022-11-18T21:34:32.161Z,19.87
2022-11-18T21:37:00.825Z,16.33
2022-11-18T21:39:29.419Z,19.67
2022-11-18T21:41:59.517Z,16.47
2022-11-18T21:44:33.928Z,17.40
2022-11-18T21:47:02.815Z,18.03
2022-11-18T21:49:31.270Z,14.97
2022-11-18T21:51:59.783Z,16.53
2022-11-18T21:54:28.136Z,16.23
2022-11-18T21:56:56.670Z,13.77
2022-11-18T21:59:25.212Z,13.70
2022-11-18T22:01:55.040Z,13.73
2022-11-18T22:04:41.133Z,12.03
2022-11-18T22:07:12.253Z,12.73
2022-11-18T22:09:40.643Z,15.47
2022-11-18T22:12:09.289Z,12.50
2022-11-18T22:14:38.483Z,13.43
2022-11-18T22:17:08.547Z,12.43
2022-11-18T22:19:37.073Z,12.77
2022-11-18T22:22:05.614Z,13.30
2022-11-18T22:24:34.205Z,14.97
2022-11-18T22:27:07.016Z,16.73
2022-11-18T22:29:38.460Z,10.40
2022-11-18T22:32:08.689Z,12.57
2022-11-18T22:34:37.273Z,13.70
2022-11-18T22:37:05.817Z,15.77
2022-11-18T22:39:34.260Z,15.00
2022-11-18T22:42:20.134Z,12.97
2022-11-18T22:44:48.625Z,14.43
2022-11-18T22:47:18.580Z,10.97
2022-11-18T22:49:47.519Z,13.23
2022-11-18T22:52:18.571Z,14.17
2022-11-18T22:54:49.556Z,13.73
2022-11-18T22:57:18.145Z,12.97
2022-11-18T22:59:46.702Z,14.57
2022-11-18T23:02:15.206Z,13.50
2022-11-18T23:04:45.098Z,14.20
2022-11-18T23:07:13.605Z,11.10
2022-11-18T23:09:44.393Z,15.73
2022-11-18T23:12:32.549Z,12.57
2022-11-18T23:15:01.252Z,14.57
2022-11-18T23:17:30.087Z,15.77
2022-11-18T23:20:00.303Z,11.23
2022-11-18T23:22:29.102Z,12.10
2022-11-18T23:24:57.833Z,12.30
2022-11-18T23:27:26.554Z,27.73
2022-11-18T23:29:55.051Z,19.33
2022-11-18T23:32:23.622Z,14.40
2022-11-18T23:34:52.758Z,12.37
2022-11-18T23:37:23.058Z,17.13
2022-11-18T23:39:52.266Z,19.13
2022-11-18T23:42:20.753Z,16.27
2022-11-18T23:44:53.078Z,17.40
2022-11-18T23:47:21.650Z,18.33
2022-11-18T23:49:50.096Z,15.63
